sensor_id;sensor_type;location;lat;lon;timestamp;temperature;humidity
79301;SHT31;68755;51.984;5.646;2024-02-23T00:00:22;8.1;72.2
79301;SHT31;68755;51.984;5.646;2024-02-23T00:02:51;8.1;72.0
79301;SHT31;68755;51.984;5.646;2024-02-23T00:05:24;8.1;72.2
79301;SHT31;68755;51.984;5.646;2024-02-23T00:07:55;8.1;72.8
79301;SHT31;68755;51.984;5.646;2024-02-23T00:10:25;8.1;73.7
79301;SHT31;68755;51.984;5.646;2024-02-23T00:12:57;8.1;74.1
79301;SHT31;68755;51.984;5.646;2024-02-23T00:15:28;8.1;74.2
79301;SHT31;68755;51.984;5.646;2024-02-23T00:18:00;8.1;74.7
79301;SHT31;68755;51.984;5.646;2024-02-23T00:20:31;8.1;74.6
79301;SHT31;68755;51.984;5.646;2024-02-23T00:23:02;8.1;74.8
79301;SHT31;68755;51.984;5.646;2024-02-23T00:25:32;8.1;74.8
79301;SHT31;68755;51.984;5.646;2024-02-23T00:28:02;8.1;74.6
79301;SHT31;68755;51.984;5.646;2024-02-23T00:30:31;8.1;74.7
79301;SHT31;68755;51.984;5.646;2024-02-23T00:33:01;8.0;74.8
79301;SHT31;68755;51.984;5.646;2024-02-23T00:35:31;8.0;74.8
79301;SHT31;68755;51.984;5.646;2024-02-23T00:38:01;8.0;74.9
79301;SHT31;68755;51.984;5.646;2024-02-23T00:40:32;8.0;74.5
79301;SHT31;68755;51.984;5.646;2024-02-23T00:43:02;8.0;74.1
79301;SHT31;68755;51.984;5.646;2024-02-23T00:45:32;8.0;74.0
79301;SHT31;68755;51.984;5.646;2024-02-23T00:48:02;8.0;73.5
79301;SHT31;68755;51.984;5.646;2024-02-23T00:50:33;8.0;72.7
79301;SHT31;68755;51.984;5.646;2024-02-23T00:53:02;8.0;72.2
79301;SHT31;68755;51.984;5.646;2024-02-23T00:55:32;7.9;71.7
79301;SHT31;68755;51.984;5.646;2024-02-23T00:58:02;7.9;71.4
79301;SHT31;68755;51.984;5.646;2024-02-23T01:00:32;7.9;70.8
79301;SHT31;68755;51.984;5.646;2024-02-23T01:03:01;7.8;70.6
79301;SHT31;68755;51.984;5.646;2024-02-23T01:05:31;7.8;70.6
79301;SHT31;68755;51.984;5.646;2024-02-23T01:08:00;7.7;71.2
79301;SHT31;68755;51.984;5.646;2024-02-23T01:10:30;7.7;73.3
79301;SHT31;68755;51.984;5.646;2024-02-23T01:13:00;7.6;74.4
79301;SHT31;68755;51.984;5.646;2024-02-23T01:15:29;7.6;74.8
79301;SHT31;68755;51.984;5.646;2024-02-23T01:17:59;7.6;75.3
79301;SHT31;68755;51.984;5.646;2024-02-23T01:20:29;7.6;75.4
79301;SHT31;68755;51.984;5.646;2024-02-23T01:22:59;7.6;75.7
79301;SHT31;68755;51.984;5.646;2024-02-23T01:25:28;7.6;75.9
79301;SHT31;68755;51.984;5.646;2024-02-23T01:27:58;7.6;75.8
79301;SHT31;68755;51.984;5.646;2024-02-23T01:30:28;7.6;75.7
79301;SHT31;68755;51.984;5.646;2024-02-23T01:32:57;7.6;75.8
79301;SHT31;68755;51.984;5.646;2024-02-23T01:35:28;7.6;75.7
79301;SHT31;68755;51.984;5.646;2024-02-23T01:37:57;7.6;75.5
79301;SHT31;68755;51.984;5.646;2024-02-23T01:40:27;7.6;75.5
79301;SHT31;68755;51.984;5.646;2024-02-23T01:43:04;7.5;75.5
79301;SHT31;68755;51.984;5.646;2024-02-23T01:45:34;7.5;75.5
79301;SHT31;68755;51.984;5.646;2024-02-23T01:48:05;7.5;75.6
79301;SHT31;68755;51.984;5.646;2024-02-23T01:50:36;7.5;75.7
79301;SHT31;68755;51.984;5.646;2024-02-23T01:53:08;7.5;75.6
79301;SHT31;68755;51.984;5.646;2024-02-23T01:55:40;7.4;75.7
79301;SHT31;68755;51.984;5.646;2024-02-23T01:58:11;7.4;75.4
79301;SHT31;68755;51.984;5.646;2024-02-23T02:00:42;7.4;75.6
79301;SHT31;68755;51.984;5.646;2024-02-23T02:03:12;7.4;75.2
79301;SHT31;68755;51.984;5.646;2024-02-23T02:05:42;7.4;75.3
79301;SHT31;68755;51.984;5.646;2024-02-23T02:08:12;7.4;75.3
79301;SHT31;68755;51.984;5.646;2024-02-23T02:10:42;7.3;75.2
79301;SHT31;68755;51.984;5.646;2024-02-23T02:13:13;7.3;75.2
79301;SHT31;68755;51.984;5.646;2024-02-23T02:15:43;7.3;75.3
79301;SHT31;68755;51.984;5.646;2024-02-23T02:18:15;7.3;74.8
79301;SHT31;68755;51.984;5.646;2024-02-23T02:20:53;7.3;75.3
79301;SHT31;68755;51.984;5.646;2024-02-23T02:23:25;7.3;75.1
79301;SHT31;68755;51.984;5.646;2024-02-23T02:25:57;7.2;75.2
79301;SHT31;68755;51.984;5.646;2024-02-23T02:28:28;7.2;75.0
79301;SHT31;68755;51.984;5.646;2024-02-23T02:30:58;7.2;74.7
79301;SHT31;68755;51.984;5.646;2024-02-23T02:33:28;7.2;74.6
79301;SHT31;68755;51.984;5.646;2024-02-23T02:35:57;7.2;74.7
79301;SHT31;68755;51.984;5.646;2024-02-23T02:38:27;7.2;75.2
79301;SHT31;68755;51.984;5.646;2024-02-23T02:40:57;7.2;75.0
79301;SHT31;68755;51.984;5.646;2024-02-23T02:43:28;7.2;75.2
79301;SHT31;68755;51.984;5.646;2024-02-23T02:45:58;7.2;75.2
79301;SHT31;68755;51.984;5.646;2024-02-23T02:48:29;7.2;75.1
79301;SHT31;68755;51.984;5.646;2024-02-23T02:51:01;7.2;75.1
79301;SHT31;68755;51.984;5.646;2024-02-23T02:53:31;7.1;75.0
79301;SHT31;68755;51.984;5.646;2024-02-23T02:56:00;7.1;74.9
79301;SHT31;68755;51.984;5.646;2024-02-23T02:58:30;7.1;74.9
79301;SHT31;68755;51.984;5.646;2024-02-23T03:01:00;7.1;75.2
79301;SHT31;68755;51.984;5.646;2024-02-23T03:03:29;7.1;75.2
79301;SHT31;68755;51.984;5.646;2024-02-23T03:05:59;7.1;74.9
79301;SHT31;68755;51.984;5.646;2024-02-23T03:08:30;7.1;74.9
79301;SHT31;68755;51.984;5.646;2024-02-23T03:11:00;7.0;75.1
79301;SHT31;68755;51.984;5.646;2024-02-23T03:13:30;7.0;74.9
79301;SHT31;68755;51.984;5.646;2024-02-23T03:16:01;7.0;74.8
79301;SHT31;68755;51.984;5.646;2024-02-23T03:18:30;7.0;74.8
79301;SHT31;68755;51.984;5.646;2024-02-23T03:21:00;7.0;74.6
79301;SHT31;68755;51.984;5.646;2024-02-23T03:23:30;7.0;74.7
79301;SHT31;68755;51.984;5.646;2024-02-23T03:26:02;7.0;74.8
79301;SHT31;68755;51.984;5.646;2024-02-23T03:28:32;6.9;74.8
79301;SHT31;68755;51.984;5.646;2024-02-23T03:31:05;6.9;75.2
79301;SHT31;68755;51.984;5.646;2024-02-23T03:33:34;6.9;75.7
79301;SHT31;68755;51.984;5.646;2024-02-23T03:36:05;6.9;75.8
79301;SHT31;68755;51.984;5.646;2024-02-23T03:38:35;6.9;75.4
79301;SHT31;68755;51.984;5.646;2024-02-23T03:41:05;7.0;75.4
79301;SHT31;68755;51.984;5.646;2024-02-23T03:43:35;7.0;75.5
79301;SHT31;68755;51.984;5.646;2024-02-23T03:46:06;7.0;75.0
79301;SHT31;68755;51.984;5.646;2024-02-23T03:48:35;7.0;75.2
79301;SHT31;68755;51.984;5.646;2024-02-23T03:51:06;7.0;75.2
79301;SHT31;68755;51.984;5.646;2024-02-23T03:53:36;6.9;75.1
79301;SHT31;68755;51.984;5.646;2024-02-23T03:56:06;6.9;75.2
79301;SHT31;68755;51.984;5.646;2024-02-23T03:58:36;6.9;75.1
79301;SHT31;68755;51.984;5.646;2024-02-23T04:01:06;6.9;75.2
79301;SHT31;68755;51.984;5.646;2024-02-23T04:03:37;6.9;75.2
79301;SHT31;68755;51.984;5.646;2024-02-23T04:06:08;6.9;75.5
79301;SHT31;68755;51.984;5.646;2024-02-23T04:08:37;6.9;75.4
79301;SHT31;68755;51.984;5.646;2024-02-23T04:11:08;6.9;75.3
79301;SHT31;68755;51.984;5.646;2024-02-23T04:13:37;6.9;75.2
79301;SHT31;68755;51.984;5.646;2024-02-23T04:16:07;6.9;75.2
79301;SHT31;68755;51.984;5.646;2024-02-23T04:18:37;6.9;75.4
79301;SHT31;68755;51.984;5.646;2024-02-23T04:21:07;6.9;75.5
79301;SHT31;68755;51.984;5.646;2024-02-23T04:23:37;6.8;75.4
79301;SHT31;68755;51.984;5.646;2024-02-23T04:26:06;6.8;75.3
79301;SHT31;68755;51.984;5.646;2024-02-23T04:28:40;6.8;75.4
79301;SHT31;68755;51.984;5.646;2024-02-23T04:31:11;6.8;75.3
79301;SHT31;68755;51.984;5.646;2024-02-23T04:33:41;6.8;75.2
79301;SHT31;68755;51.984;5.646;2024-02-23T04:36:10;6.8;75.6
79301;SHT31;68755;51.984;5.646;2024-02-23T04:38:40;6.8;75.7
79301;SHT31;68755;51.984;5.646;2024-02-23T04:41:10;6.8;75.7
79301;SHT31;68755;51.984;5.646;2024-02-23T04:43:40;6.8;75.6
79301;SHT31;68755;51.984;5.646;2024-02-23T04:46:09;6.8;75.6
79301;SHT31;68755;51.984;5.646;2024-02-23T04:48:40;6.8;75.8
79301;SHT31;68755;51.984;5.646;2024-02-23T04:51:09;6.8;75.8
79301;SHT31;68755;51.984;5.646;2024-02-23T04:53:39;6.8;76.2
79301;SHT31;68755;51.984;5.646;2024-02-23T04:56:09;6.8;76.1
79301;SHT31;68755;51.984;5.646;2024-02-23T04:58:39;6.8;76.3
79301;SHT31;68755;51.984;5.646;2024-02-23T05:01:11;6.9;76.2
79301;SHT31;68755;51.984;5.646;2024-02-23T05:03:43;6.9;76.1
79301;SHT31;68755;51.984;5.646;2024-02-23T05:06:13;6.9;75.9
79301;SHT31;68755;51.984;5.646;2024-02-23T05:08:42;6.9;75.9
79301;SHT31;68755;51.984;5.646;2024-02-23T05:11:16;6.9;75.8
79301;SHT31;68755;51.984;5.646;2024-02-23T05:13:48;6.9;75.7
79301;SHT31;68755;51.984;5.646;2024-02-23T05:16:18;7.0;75.8
79301;SHT31;68755;51.984;5.646;2024-02-23T05:18:47;7.0;75.9
79301;SHT31;68755;51.984;5.646;2024-02-23T05:21:17;7.0;75.6
79301;SHT31;68755;51.984;5.646;2024-02-23T05:23:47;7.0;75.5
79301;SHT31;68755;51.984;5.646;2024-02-23T05:26:17;7.1;75.4
79301;SHT31;68755;51.984;5.646;2024-02-23T05:28:49;7.1;75.3
79301;SHT31;68755;51.984;5.646;2024-02-23T05:31:20;7.1;74.9
79301;SHT31;68755;51.984;5.646;2024-02-23T05:33:50;7.1;75.2
79301;SHT31;68755;51.984;5.646;2024-02-23T05:36:19;7.1;75.3
79301;SHT31;68755;51.984;5.646;2024-02-23T05:38:49;7.2;74.8
79301;SHT31;68755;51.984;5.646;2024-02-23T05:41:22;7.2;74.8
79301;SHT31;68755;51.984;5.646;2024-02-23T05:43:54;7.2;74.6
79301;SHT31;68755;51.984;5.646;2024-02-23T05:46:24;7.2;74.3
79301;SHT31;68755;51.984;5.646;2024-02-23T05:48:56;7.3;73.9
79301;SHT31;68755;51.984;5.646;2024-02-23T05:51:27;7.3;73.9
79301;SHT31;68755;51.984;5.646;2024-02-23T05:53:57;7.3;73.6
79301;SHT31;68755;51.984;5.646;2024-02-23T05:56:27;7.3;73.8
79301;SHT31;68755;51.984;5.646;2024-02-23T05:58:57;7.3;73.8
79301;SHT31;68755;51.984;5.646;2024-02-23T06:01:27;7.3;73.3
79301;SHT31;68755;51.984;5.646;2024-02-23T06:03:56;7.3;73.2
79301;SHT31;68755;51.984;5.646;2024-02-23T06:06:26;7.3;73.2
79301;SHT31;68755;51.984;5.646;2024-02-23T06:08:56;7.3;73.1
79301;SHT31;68755;51.984;5.646;2024-02-23T06:11:27;7.3;73.3
79301;SHT31;68755;51.984;5.646;2024-02-23T06:13:57;7.3;73.1
79301;SHT31;68755;51.984;5.646;2024-02-23T06:16:27;7.3;73.2
79301;SHT31;68755;51.984;5.646;2024-02-23T06:18:57;7.3;73.5
79301;SHT31;68755;51.984;5.646;2024-02-23T06:21:27;7.3;73.5
79301;SHT31;68755;51.984;5.646;2024-02-23T06:23:57;7.3;73.0
79301;SHT31;68755;51.984;5.646;2024-02-23T06:26:28;7.3;72.6
79301;SHT31;68755;51.984;5.646;2024-02-23T06:28:58;7.3;72.7
79301;SHT31;68755;51.984;5.646;2024-02-23T06:31:28;7.3;72.9
79301;SHT31;68755;51.984;5.646;2024-02-23T06:33:57;7.3;73.3
79301;SHT31;68755;51.984;5.646;2024-02-23T06:36:29;7.3;73.1
79301;SHT31;68755;51.984;5.646;2024-02-23T06:38:59;7.3;73.3
79301;SHT31;68755;51.984;5.646;2024-02-23T06:41:28;7.3;73.4
79301;SHT31;68755;51.984;5.646;2024-02-23T06:43:58;7.4;73.3
79301;SHT31;68755;51.984;5.646;2024-02-23T06:46:28;7.4;73.2
79301;SHT31;68755;51.984;5.646;2024-02-23T06:48:57;7.4;73.4
79301;SHT31;68755;51.984;5.646;2024-02-23T06:51:27;7.4;73.3
79301;SHT31;68755;51.984;5.646;2024-02-23T06:53:57;7.4;73.2
79301;SHT31;68755;51.984;5.646;2024-02-23T06:56:27;7.4;73.6
79301;SHT31;68755;51.984;5.646;2024-02-23T06:58:56;7.4;73.1
79301;SHT31;68755;51.984;5.646;2024-02-23T07:01:28;7.5;72.7
79301;SHT31;68755;51.984;5.646;2024-02-23T07:03:58;7.5;73.1
79301;SHT31;68755;51.984;5.646;2024-02-23T07:06:30;7.5;73.2
79301;SHT31;68755;51.984;5.646;2024-02-23T07:09:01;7.5;72.8
79301;SHT31;68755;51.984;5.646;2024-02-23T07:11:32;7.5;72.6
79301;SHT31;68755;51.984;5.646;2024-02-23T07:14:02;7.5;72.6
79301;SHT31;68755;51.984;5.646;2024-02-23T07:16:32;7.6;71.9
79301;SHT31;68755;51.984;5.646;2024-02-23T07:19:01;7.6;71.8
79301;SHT31;68755;51.984;5.646;2024-02-23T07:21:31;7.6;71.5
79301;SHT31;68755;51.984;5.646;2024-02-23T07:24:01;7.6;71.4
79301;SHT31;68755;51.984;5.646;2024-02-23T07:26:30;7.6;71.7
79301;SHT31;68755;51.984;5.646;2024-02-23T07:29:00;7.6;71.3
79301;SHT31;68755;51.984;5.646;2024-02-23T07:31:30;7.6;71.2
79301;SHT31;68755;51.984;5.646;2024-02-23T07:34:00;7.6;70.7
79301;SHT31;68755;51.984;5.646;2024-02-23T07:36:30;7.6;70.8
79301;SHT31;68755;51.984;5.646;2024-02-23T07:39:00;7.6;70.6
79301;SHT31;68755;51.984;5.646;2024-02-23T07:41:30;7.6;71.4
79301;SHT31;68755;51.984;5.646;2024-02-23T07:44:01;7.7;71.1
79301;SHT31;68755;51.984;5.646;2024-02-23T07:46:31;7.7;71.6
79301;SHT31;68755;51.984;5.646;2024-02-23T07:49:00;7.7;71.4
79301;SHT31;68755;51.984;5.646;2024-02-23T07:51:30;7.7;70.7
79301;SHT31;68755;51.984;5.646;2024-02-23T07:54:00;7.7;70.9
79301;SHT31;68755;51.984;5.646;2024-02-23T07:56:29;7.7;70.9
79301;SHT31;68755;51.984;5.646;2024-02-23T07:59:00;7.8;70.0
79301;SHT31;68755;51.984;5.646;2024-02-23T08:01:30;7.8;70.6
79301;SHT31;68755;51.984;5.646;2024-02-23T08:04:01;7.8;70.6
79301;SHT31;68755;51.984;5.646;2024-02-23T08:06:30;7.8;70.3
79301;SHT31;68755;51.984;5.646;2024-02-23T08:09:00;7.9;70.3
79301;SHT31;68755;51.984;5.646;2024-02-23T08:14:52;7.9;69.3
79301;SHT31;68755;51.984;5.646;2024-02-23T08:17:22;8.0;69.2
79301;SHT31;68755;51.984;5.646;2024-02-23T08:19:52;8.0;69.8
79301;SHT31;68755;51.984;5.646;2024-02-23T08:22:22;8.0;69.5
79301;SHT31;68755;51.984;5.646;2024-02-23T08:24:55;8.0;68.9
79301;SHT31;68755;51.984;5.646;2024-02-23T08:27:24;8.0;69.0
79301;SHT31;68755;51.984;5.646;2024-02-23T08:29:54;8.0;69.4
79301;SHT31;68755;51.984;5.646;2024-02-23T08:32:26;8.1;69.3
79301;SHT31;68755;51.984;5.646;2024-02-23T08:34:55;8.1;69.7
79301;SHT31;68755;51.984;5.646;2024-02-23T08:37:26;8.1;69.5
79301;SHT31;68755;51.984;5.646;2024-02-23T08:39:56;8.1;70.0
79301;SHT31;68755;51.984;5.646;2024-02-23T08:42:26;8.1;69.8
79301;SHT31;68755;51.984;5.646;2024-02-23T08:44:56;8.2;69.0
79301;SHT31;68755;51.984;5.646;2024-02-23T08:47:26;8.2;68.8
79301;SHT31;68755;51.984;5.646;2024-02-23T08:49:59;8.2;68.9
79301;SHT31;68755;51.984;5.646;2024-02-23T08:52:29;8.3;68.4
79301;SHT31;68755;51.984;5.646;2024-02-23T08:54:59;8.3;68.6
79301;SHT31;68755;51.984;5.646;2024-02-23T08:57:29;8.3;68.7
79301;SHT31;68755;51.984;5.646;2024-02-23T09:00:00;8.3;68.1
79301;SHT31;68755;51.984;5.646;2024-02-23T09:02:33;8.4;67.2
79301;SHT31;68755;51.984;5.646;2024-02-23T09:05:03;8.4;67.3
79301;SHT31;68755;51.984;5.646;2024-02-23T09:07:32;8.4;67.1
79301;SHT31;68755;51.984;5.646;2024-02-23T09:10:03;8.4;67.2
79301;SHT31;68755;51.984;5.646;2024-02-23T09:12:33;8.4;67.1
79301;SHT31;68755;51.984;5.646;2024-02-23T09:15:04;8.4;67.1
79301;SHT31;68755;51.984;5.646;2024-02-23T09:17:37;8.4;67.0
79301;SHT31;68755;51.984;5.646;2024-02-23T09:20:07;8.4;67.8
79301;SHT31;68755;51.984;5.646;2024-02-23T09:22:37;8.5;67.9
79301;SHT31;68755;51.984;5.646;2024-02-23T09:25:07;8.5;68.2
79301;SHT31;68755;51.984;5.646;2024-02-23T09:27:37;8.5;68.5
79301;SHT31;68755;51.984;5.646;2024-02-23T09:30:12;8.5;68.2
79301;SHT31;68755;51.984;5.646;2024-02-23T09:32:42;8.5;68.2
79301;SHT31;68755;51.984;5.646;2024-02-23T09:35:11;8.6;68.2
79301;SHT31;68755;51.984;5.646;2024-02-23T09:37:41;8.6;68.3
79301;SHT31;68755;51.984;5.646;2024-02-23T09:40:11;8.6;68.3
79301;SHT31;68755;51.984;5.646;2024-02-23T09:42:42;8.6;68.3
79301;SHT31;68755;51.984;5.646;2024-02-23T09:45:12;8.7;68.2
79301;SHT31;68755;51.984;5.646;2024-02-23T09:47:43;8.7;68.0
79301;SHT31;68755;51.984;5.646;2024-02-23T09:50:15;8.7;67.8
79301;SHT31;68755;51.984;5.646;2024-02-23T09:52:47;8.8;68.1
79301;SHT31;68755;51.984;5.646;2024-02-23T09:55:18;8.8;68.3
79301;SHT31;68755;51.984;5.646;2024-02-23T09:57:52;8.8;68.8
79301;SHT31;68755;51.984;5.646;2024-02-23T10:00:26;8.9;69.5
79301;SHT31;68755;51.984;5.646;2024-02-23T10:02:58;8.9;69.4
79301;SHT31;68755;51.984;5.646;2024-02-23T10:05:30;8.9;70.6
79301;SHT31;68755;51.984;5.646;2024-02-23T10:08:00;8.9;70.6
79301;SHT31;68755;51.984;5.646;2024-02-23T10:10:33;8.9;70.8
79301;SHT31;68755;51.984;5.646;2024-02-23T10:13:03;8.9;70.3
79301;SHT31;68755;51.984;5.646;2024-02-23T10:15:33;8.8;70.4
79301;SHT31;68755;51.984;5.646;2024-02-23T10:18:03;8.8;70.8
79301;SHT31;68755;51.984;5.646;2024-02-23T10:20:33;8.8;71.2
79301;SHT31;68755;51.984;5.646;2024-02-23T10:23:05;8.8;70.9
79301;SHT31;68755;51.984;5.646;2024-02-23T10:25:37;8.8;71.3
79301;SHT31;68755;51.984;5.646;2024-02-23T10:28:07;8.8;71.3
79301;SHT31;68755;51.984;5.646;2024-02-23T10:30:38;8.8;71.3
79301;SHT31;68755;51.984;5.646;2024-02-23T10:33:11;8.8;71.9
79301;SHT31;68755;51.984;5.646;2024-02-23T10:35:42;8.8;71.1
79301;SHT31;68755;51.984;5.646;2024-02-23T10:38:17;8.8;71.2
79301;SHT31;68755;51.984;5.646;2024-02-23T10:40:52;8.8;70.7
79301;SHT31;68755;51.984;5.646;2024-02-23T10:43:30;8.9;71.0
79301;SHT31;68755;51.984;5.646;2024-02-23T10:46:02;8.9;70.6
79301;SHT31;68755;51.984;5.646;2024-02-23T10:48:36;8.9;69.9
79301;SHT31;68755;51.984;5.646;2024-02-23T10:51:07;8.9;70.3
79301;SHT31;68755;51.984;5.646;2024-02-23T10:53:39;8.9;70.3
79301;SHT31;68755;51.984;5.646;2024-02-23T10:56:10;8.9;70.3
79301;SHT31;68755;51.984;5.646;2024-02-23T10:58:40;9.0;69.8
79301;SHT31;68755;51.984;5.646;2024-02-23T11:01:10;9.0;69.9
79301;SHT31;68755;51.984;5.646;2024-02-23T11:03:43;9.0;69.8
79301;SHT31;68755;51.984;5.646;2024-02-23T11:06:17;9.0;69.7
79301;SHT31;68755;51.984;5.646;2024-02-23T11:08:48;9.0;69.9
79301;SHT31;68755;51.984;5.646;2024-02-23T11:11:19;9.0;70.2
79301;SHT31;68755;51.984;5.646;2024-02-23T11:13:57;9.0;70.0
79301;SHT31;68755;51.984;5.646;2024-02-23T11:16:26;9.1;69.9
79301;SHT31;68755;51.984;5.646;2024-02-23T11:19:04;9.1;69.7
79301;SHT31;68755;51.984;5.646;2024-02-23T11:21:36;9.1;69.3
79301;SHT31;68755;51.984;5.646;2024-02-23T11:24:06;9.1;69.3
79301;SHT31;68755;51.984;5.646;2024-02-23T11:26:38;9.1;69.3
79301;SHT31;68755;51.984;5.646;2024-02-23T11:29:12;9.1;69.1
79301;SHT31;68755;51.984;5.646;2024-02-23T11:31:46;9.1;68.8
79301;SHT31;68755;51.984;5.646;2024-02-23T11:34:23;9.1;68.9
79301;SHT31;68755;51.984;5.646;2024-02-23T11:36:54;9.1;68.5
79301;SHT31;68755;51.984;5.646;2024-02-23T11:39:23;9.1;69.0
79301;SHT31;68755;51.984;5.646;2024-02-23T11:41:53;9.1;70.0
79301;SHT31;68755;51.984;5.646;2024-02-23T11:44:27;9.1;69.6
79301;SHT31;68755;51.984;5.646;2024-02-23T11:46:58;9.1;69.5
79301;SHT31;68755;51.984;5.646;2024-02-23T11:49:31;9.1;70.1
79301;SHT31;68755;51.984;5.646;2024-02-23T11:52:01;9.2;69.3
79301;SHT31;68755;51.984;5.646;2024-02-23T11:54:31;9.2;69.2
79301;SHT31;68755;51.984;5.646;2024-02-23T11:57:01;9.2;69.3
79301;SHT31;68755;51.984;5.646;2024-02-23T11:59:32;9.2;69.3
79301;SHT31;68755;51.984;5.646;2024-02-23T12:02:04;9.2;69.0
79301;SHT31;68755;51.984;5.646;2024-02-23T12:04:34;9.3;69.3
79301;SHT31;68755;51.984;5.646;2024-02-23T12:07:06;9.3;69.0
79301;SHT31;68755;51.984;5.646;2024-02-23T12:09:38;9.3;69.5
79301;SHT31;68755;51.984;5.646;2024-02-23T12:12:09;9.4;68.3
79301;SHT31;68755;51.984;5.646;2024-02-23T12:14:40;9.4;68.1
79301;SHT31;68755;51.984;5.646;2024-02-23T12:17:10;9.4;67.9
79301;SHT31;68755;51.984;5.646;2024-02-23T12:19:41;9.5;68.6
79301;SHT31;68755;51.984;5.646;2024-02-23T12:22:14;9.5;68.1
79301;SHT31;68755;51.984;5.646;2024-02-23T12:24:45;9.6;68.3
79301;SHT31;68755;51.984;5.646;2024-02-23T12:27:18;9.6;68.5
79301;SHT31;68755;51.984;5.646;2024-02-23T12:29:53;9.6;68.2
79301;SHT31;68755;51.984;5.646;2024-02-23T12:32:23;9.7;66.5
79301;SHT31;68755;51.984;5.646;2024-02-23T12:34:54;9.7;66.8
79301;SHT31;68755;51.984;5.646;2024-02-23T12:37:25;9.7;67.3
79301;SHT31;68755;51.984;5.646;2024-02-23T12:39:54;9.8;67.1
79301;SHT31;68755;51.984;5.646;2024-02-23T12:42:24;9.8;67.7
79301;SHT31;68755;51.984;5.646;2024-02-23T12:44:55;9.8;67.3
79301;SHT31;68755;51.984;5.646;2024-02-23T12:47:24;9.8;66.6
79301;SHT31;68755;51.984;5.646;2024-02-23T12:49:55;9.9;66.1
79301;SHT31;68755;51.984;5.646;2024-02-23T12:52:25;9.9;66.7
79301;SHT31;68755;51.984;5.646;2024-02-23T12:54:55;9.9;67.1
79301;SHT31;68755;51.984;5.646;2024-02-23T12:57:25;9.9;67.0
79301;SHT31;68755;51.984;5.646;2024-02-23T12:59:54;10.0;66.1
79301;SHT31;68755;51.984;5.646;2024-02-23T13:02:24;10.0;66.3
79301;SHT31;68755;51.984;5.646;2024-02-23T13:04:58;10.0;67.5
79301;SHT31;68755;51.984;5.646;2024-02-23T13:07:30;10.1;67.6
79301;SHT31;68755;51.984;5.646;2024-02-23T13:10:00;10.1;66.8
79301;SHT31;68755;51.984;5.646;2024-02-23T13:12:30;10.2;66.1
79301;SHT31;68755;51.984;5.646;2024-02-23T13:15:00;10.2;66.5
79301;SHT31;68755;51.984;5.646;2024-02-23T13:17:30;10.3;65.2
79301;SHT31;68755;51.984;5.646;2024-02-23T13:20:00;10.3;64.8
79301;SHT31;68755;51.984;5.646;2024-02-23T13:22:30;10.3;65.1
79301;SHT31;68755;51.984;5.646;2024-02-23T13:25:00;10.4;64.9
79301;SHT31;68755;51.984;5.646;2024-02-23T13:27:30;10.4;64.6
79301;SHT31;68755;51.984;5.646;2024-02-23T13:30:00;10.4;64.4
79301;SHT31;68755;51.984;5.646;2024-02-23T13:32:29;10.4;63.4
79301;SHT31;68755;51.984;5.646;2024-02-23T13:34:59;10.4;62.8
79301;SHT31;68755;51.984;5.646;2024-02-23T13:37:32;10.4;62.9
79301;SHT31;68755;51.984;5.646;2024-02-23T13:40:01;10.4;64.0
79301;SHT31;68755;51.984;5.646;2024-02-23T13:42:33;10.4;64.1
79301;SHT31;68755;51.984;5.646;2024-02-23T13:45:03;10.4;63.9
79301;SHT31;68755;51.984;5.646;2024-02-23T13:47:34;10.4;64.0
79301;SHT31;68755;51.984;5.646;2024-02-23T13:50:08;10.4;63.3
79301;SHT31;68755;51.984;5.646;2024-02-23T13:52:38;10.4;63.2
79301;SHT31;68755;51.984;5.646;2024-02-23T13:55:08;10.4;62.7
79301;SHT31;68755;51.984;5.646;2024-02-23T13:57:38;10.5;62.7
79301;SHT31;68755;51.984;5.646;2024-02-23T14:00:13;10.5;62.9
79301;SHT31;68755;51.984;5.646;2024-02-23T14:02:43;10.5;62.6
79301;SHT31;68755;51.984;5.646;2024-02-23T14:05:13;10.5;62.8
79301;SHT31;68755;51.984;5.646;2024-02-23T14:07:45;10.5;64.0
79301;SHT31;68755;51.984;5.646;2024-02-23T14:10:17;10.5;63.7
79301;SHT31;68755;51.984;5.646;2024-02-23T14:12:47;10.5;62.7
79301;SHT31;68755;51.984;5.646;2024-02-23T14:15:18;10.5;63.3
79301;SHT31;68755;51.984;5.646;2024-02-23T14:17:47;10.6;63.4
79301;SHT31;68755;51.984;5.646;2024-02-23T14:20:18;10.6;63.4
79301;SHT31;68755;51.984;5.646;2024-02-23T14:22:48;10.6;63.7
79301;SHT31;68755;51.984;5.646;2024-02-23T14:25:20;10.6;62.5
79301;SHT31;68755;51.984;5.646;2024-02-23T14:27:50;10.6;63.1
79301;SHT31;68755;51.984;5.646;2024-02-23T14:30:23;10.6;62.2
79301;SHT31;68755;51.984;5.646;2024-02-23T14:32:52;10.6;63.3
79301;SHT31;68755;51.984;5.646;2024-02-23T14:35:22;10.7;64.1
79301;SHT31;68755;51.984;5.646;2024-02-23T14:37:53;10.7;63.9
79301;SHT31;68755;51.984;5.646;2024-02-23T14:40:23;10.7;63.5
79301;SHT31;68755;51.984;5.646;2024-02-23T14:42:53;10.7;64.0
79301;SHT31;68755;51.984;5.646;2024-02-23T14:45:23;10.8;63.2
79301;SHT31;68755;51.984;5.646;2024-02-23T14:47:54;10.8;63.2
79301;SHT31;68755;51.984;5.646;2024-02-23T14:50:26;10.8;63.4
79301;SHT31;68755;51.984;5.646;2024-02-23T14:52:56;10.8;63.8
79301;SHT31;68755;51.984;5.646;2024-02-23T14:55:26;10.9;63.2
79301;SHT31;68755;51.984;5.646;2024-02-23T14:57:56;10.9;63.3
79301;SHT31;68755;51.984;5.646;2024-02-23T15:00:28;10.9;63.6
79301;SHT31;68755;51.984;5.646;2024-02-23T15:03:00;10.9;63.6
79301;SHT31;68755;51.984;5.646;2024-02-23T15:05:30;10.9;64.1
79301;SHT31;68755;51.984;5.646;2024-02-23T15:08:00;10.9;64.5
79301;SHT31;68755;51.984;5.646;2024-02-23T15:10:30;10.9;65.1
79301;SHT31;68755;51.984;5.646;2024-02-23T15:13:00;10.8;64.6
79301;SHT31;68755;51.984;5.646;2024-02-23T15:15:30;10.8;64.7
79301;SHT31;68755;51.984;5.646;2024-02-23T15:18:00;10.8;64.3
79301;SHT31;68755;51.984;5.646;2024-02-23T15:20:31;10.8;64.5
79301;SHT31;68755;51.984;5.646;2024-02-23T15:23:00;10.7;64.7
79301;SHT31;68755;51.984;5.646;2024-02-23T15:25:30;10.7;66.3
79301;SHT31;68755;51.984;5.646;2024-02-23T15:28:01;10.6;67.2
79301;SHT31;68755;51.984;5.646;2024-02-23T15:30:31;10.6;68.1
79301;SHT31;68755;51.984;5.646;2024-02-23T15:33:01;10.5;68.9
79301;SHT31;68755;51.984;5.646;2024-02-23T15:35:32;10.5;69.3
79301;SHT31;68755;51.984;5.646;2024-02-23T15:38:02;10.4;69.7
79301;SHT31;68755;51.984;5.646;2024-02-23T15:40:32;10.4;70.3
79301;SHT31;68755;51.984;5.646;2024-02-23T15:43:03;10.4;70.3
79301;SHT31;68755;51.984;5.646;2024-02-23T15:45:33;10.3;70.9
79301;SHT31;68755;51.984;5.646;2024-02-23T15:48:03;10.3;70.6
79301;SHT31;68755;51.984;5.646;2024-02-23T15:50:33;10.3;70.4
79301;SHT31;68755;51.984;5.646;2024-02-23T15:53:05;10.3;70.2
79301;SHT31;68755;51.984;5.646;2024-02-23T15:55:35;10.3;70.2
79301;SHT31;68755;51.984;5.646;2024-02-23T15:58:04;10.2;70.2
79301;SHT31;68755;51.984;5.646;2024-02-23T16:00:35;10.2;69.9
79301;SHT31;68755;51.984;5.646;2024-02-23T16:03:05;10.2;70.2
79301;SHT31;68755;51.984;5.646;2024-02-23T16:05:35;10.1;70.2
79301;SHT31;68755;51.984;5.646;2024-02-23T16:08:06;10.1;69.8
79301;SHT31;68755;51.984;5.646;2024-02-23T16:10:38;10.1;69.9
79301;SHT31;68755;51.984;5.646;2024-02-23T16:13:08;10.1;69.7
79301;SHT31;68755;51.984;5.646;2024-02-23T16:15:38;10.1;69.9
79301;SHT31;68755;51.984;5.646;2024-02-23T16:18:07;10.1;70.3
79301;SHT31;68755;51.984;5.646;2024-02-23T16:20:37;10.0;70.4
79301;SHT31;68755;51.984;5.646;2024-02-23T16:23:07;10.0;70.7
79301;SHT31;68755;51.984;5.646;2024-02-23T16:25:37;10.0;69.9
79301;SHT31;68755;51.984;5.646;2024-02-23T16:28:07;10.0;70.2
79301;SHT31;68755;51.984;5.646;2024-02-23T16:30:38;9.9;70.3
79301;SHT31;68755;51.984;5.646;2024-02-23T16:33:08;9.9;70.0
79301;SHT31;68755;51.984;5.646;2024-02-23T16:35:37;9.9;69.5
79301;SHT31;68755;51.984;5.646;2024-02-23T16:38:07;9.8;69.6